createdAt,value
2019-05-12T00:03:37.811Z,16.93
2019-05-12T00:08:42.947Z,17.15
2019-05-12T00:13:48.009Z,18.35
2019-05-12T00:18:53.393Z,18.10
2019-05-12T00:24:13.437Z,16.27
2019-05-12T00:29:18.682Z,15.28
2019-05-12T00:34:24.000Z,15.43
2019-05-12T00:39:29.099Z,16.20
2019-05-12T00:44:34.097Z,15.88
2019-05-12T00:49:39.103Z,17.80
2019-05-12T00:54:45.107Z,15.60
2019-05-12T00:59:50.103Z,15.28
2019-05-12T01:04:58.036Z,14.63
2019-05-12T01:10:04.749Z,17.50
2019-05-12T01:15:09.384Z,16.35
2019-05-12T01:20:14.489Z,13.73
2019-05-12T01:25:19.547Z,15.03
2019-05-12T01:30:24.589Z,15.87
2019-05-12T01:35:29.655Z,15.13
2019-05-12T01:40:34.687Z,15.18
2019-05-12T01:45:39.711Z,15.13
2019-05-12T01:50:44.716Z,16.40
2019-05-12T01:55:49.807Z,16.42
2019-05-12T02:00:54.863Z,15.60
2019-05-12T02:06:01.519Z,14.80
2019-05-12T02:11:24.383Z,16.17
2019-05-12T02:16:29.487Z,18.25
2019-05-12T02:21:34.537Z,17.95
2019-05-12T02:26:39.603Z,16.20
2019-05-12T02:31:44.617Z,17.48
2019-05-12T02:36:49.651Z,17.98
2019-05-12T02:41:54.670Z,15.85
2019-05-12T02:47:00.001Z,22.15
2019-05-12T02:52:05.218Z,18.98
2019-05-12T02:57:10.823Z,15.78
2019-05-12T03:02:17.621Z,16.27
2019-05-12T03:07:25.429Z,17.12
2019-05-12T03:12:30.417Z,18.02
2019-05-12T03:17:48.600Z,17.30
2019-05-12T03:22:55.425Z,18.07
2019-05-12T03:28:00.694Z,16.77
2019-05-12T03:33:09.782Z,19.80
2019-05-12T03:38:14.815Z,19.20
2019-05-12T03:43:19.586Z,17.10
2019-05-12T03:48:25.337Z,18.02
2019-05-12T03:53:30.505Z,18.42
2019-05-12T03:58:35.520Z,18.40
2019-05-12T04:03:40.865Z,16.03
2019-05-12T04:08:46.004Z,17.63
2019-05-12T04:13:51.017Z,17.63
2019-05-12T04:18:57.135Z,16.60
2019-05-12T04:24:05.234Z,15.27
2019-05-12T04:29:08.834Z,14.70
2019-05-12T04:34:18.538Z,16.97
2019-05-12T04:39:20.583Z,20.40
2019-05-12T04:44:25.592Z,17.60
2019-05-12T04:49:30.596Z,17.73
2019-05-12T04:54:35.778Z,22.60
2019-05-12T04:59:40.818Z,18.13
2019-05-12T05:04:46.124Z,15.07
2019-05-12T05:09:54.897Z,16.13
2019-05-12T05:14:58.858Z,16.27
2019-05-12T05:20:04.181Z,21.57
2019-05-12T05:25:09.214Z,23.63
2019-05-12T05:30:14.239Z,16.90
2019-05-12T05:35:19.247Z,16.57
2019-05-12T05:40:28.466Z,16.60
2019-05-12T05:45:30.963Z,16.23
2019-05-12T05:50:36.020Z,16.00
2019-05-12T05:55:41.044Z,20.13
2019-05-12T06:00:46.057Z,22.67
2019-05-12T06:05:52.958Z,22.27
2019-05-12T06:10:57.791Z,26.67
2019-05-12T06:16:04.407Z,25.40
2019-05-12T06:21:09.858Z,19.20
2019-05-12T06:26:14.905Z,17.50
2019-05-12T06:31:27.973Z,18.63
2019-05-12T06:36:27.436Z,18.00
2019-05-12T06:41:33.658Z,16.73
2019-05-12T06:46:39.007Z,15.60
2019-05-12T06:51:44.551Z,19.00
2019-05-12T06:56:57.916Z,15.57
2019-05-12T07:02:00.459Z,15.60
2019-05-12T07:07:04.119Z,16.77
2019-05-12T07:12:09.228Z,15.00
2019-05-12T07:17:44.170Z,19.17
2019-05-12T07:22:49.120Z,17.60
2019-05-12T07:28:00.299Z,18.93
2019-05-12T07:33:01.441Z,24.43
2019-05-12T07:38:27.850Z,23.27
2019-05-12T07:43:33.885Z,21.47
2019-05-12T07:48:40.249Z,16.23
2019-05-12T07:53:54.659Z,16.00
2019-05-12T07:58:57.107Z,22.23
2019-05-12T08:04:01.547Z,23.23
2019-05-12T08:09:08.086Z,20.83
2019-05-12T08:14:24.703Z,21.93
2019-05-12T08:19:23.756Z,19.73
2019-05-12T08:24:26.776Z,16.80
2019-05-12T08:29:34.161Z,14.60
2019-05-12T08:34:39.864Z,17.10
2019-05-12T08:39:46.300Z,14.47
2019-05-12T08:44:54.129Z,17.07
2019-05-12T08:49:59.412Z,16.70
2019-05-12T08:55:04.525Z,14.70
2019-05-12T09:00:10.237Z,17.87
2019-05-12T09:05:19.267Z,15.57
2019-05-12T09:10:24.375Z,15.73
2019-05-12T09:15:29.385Z,15.30
2019-05-12T09:20:39.971Z,15.03
2019-05-12T09:25:45.362Z,15.17
2019-05-12T09:30:49.506Z,15.83
2019-05-12T09:36:04.372Z,16.00
2019-05-12T09:41:13.761Z,19.13
2019-05-12T09:46:18.355Z,17.23
2019-05-12T09:51:23.859Z,23.17
2019-05-12T09:56:29.669Z,21.10
2019-05-12T10:01:39.288Z,25.07
2019-05-12T10:06:44.292Z,19.77
2019-05-12T10:11:53.946Z,17.20
2019-05-12T10:16:55.379Z,15.53
2019-05-12T10:22:00.752Z,14.33
2019-05-12T10:27:06.830Z,13.60
2019-05-12T10:32:13.325Z,12.73
2019-05-12T10:37:19.377Z,12.03
2019-05-12T10:42:25.349Z,13.07
2019-05-12T10:47:30.366Z,18.20
2019-05-12T10:52:38.880Z,16.47
2019-05-12T10:57:47.060Z,12.83
2019-05-12T11:02:50.581Z,13.57
2019-05-12T11:08:00.200Z,13.07
2019-05-12T11:13:08.324Z,12.73
2019-05-12T11:18:14.967Z,12.33
2019-05-12T11:23:20.037Z,14.53
2019-05-12T11:28:34.211Z,15.20
2019-05-12T11:33:39.271Z,13.20
2019-05-12T11:38:44.521Z,13.30
2019-05-12T11:43:52.151Z,12.53
2019-05-12T11:48:57.215Z,14.23
2019-05-12T11:54:03.628Z,17.97
2019-05-12T11:59:08.982Z,17.20
2019-05-12T12:04:14.467Z,20.03
2019-05-12T12:09:19.612Z,18.87
2019-05-12T12:14:24.653Z,24.40
2019-05-12T12:19:37.862Z,16.77
2019-05-12T12:24:38.382Z,15.10
2019-05-12T12:29:43.972Z,15.60
2019-05-12T12:34:49.095Z,17.45
2019-05-12T12:39:54.099Z,15.53
2019-05-12T12:45:00.745Z,17.10
2019-05-12T12:50:06.044Z,15.07
2019-05-12T12:55:11.405Z,12.40
2019-05-12T13:00:28.810Z,11.35
2019-05-12T13:05:24.033Z,11.60
2019-05-12T13:10:29.488Z,12.23
2019-05-12T13:15:34.954Z,16.07
2019-05-12T13:20:40.025Z,18.87
2019-05-12T13:25:50.503Z,17.47
2019-05-12T13:30:55.921Z,12.97
2019-05-12T13:36:13.533Z,12.78
2019-05-12T13:41:19.987Z,12.63
2019-05-12T13:46:24.937Z,15.63
2019-05-12T13:51:30.015Z,13.23
2019-05-12T13:56:36.284Z,13.55
2019-05-12T14:01:45.140Z,15.50
2019-05-12T14:06:48.716Z,13.93
2019-05-12T14:11:53.986Z,13.30
2019-05-12T14:17:04.131Z,12.10
2019-05-12T23:16:04.496Z,15.47
2019-05-12T23:21:13.636Z,14.75
2019-05-12T23:26:16.341Z,21.37
2019-05-12T23:31:25.889Z,16.20
2019-05-12T23:36:36.514Z,15.65
2019-05-12T23:41:35.840Z,17.60
2019-05-12T23:46:43.584Z,17.15
2019-05-12T23:51:47.577Z,17.33
2019-05-12T23:56:53.722Z,23.10
